sensor_id;sensor_type;location;lat;lon;timestamp;pressure;altitude;pressure_sealevel;temperature;humidity
42591;BME280;28218;53.342;-6.216;2023-02-04T00:00:16;103220.25;;;11.26;100.00
42591;BME280;28218;53.342;-6.216;2023-02-04T00:02:44;103227.97;;;11.30;100.00
42591;BME280;28218;53.342;-6.216;2023-02-04T00:05:13;103217.41;;;11.30;100.00
42591;BME280;28218;53.342;-6.216;2023-02-04T00:07:41;103224.38;;;11.31;100.00
42591;BME280;28218;53.342;-6.216;2023-02-04T00:10:09;103231.31;;;11.32;100.00
42591;BME280;28218;53.342;-6.216;2023-02-04T00:12:38;103240.28;;;11.29;100.00
42591;BME280;28218;53.342;-6.216;2023-02-04T00:15:07;103237.44;;;11.32;100.00
42591;BME280;28218;53.342;-6.216;2023-02-04T00:17:36;103233.63;;;11.36;100.00
42591;BME280;28218;53.342;-6.216;2023-02-04T00:20:05;103229.66;;;11.31;100.00
42591;BME280;28218;53.342;-6.216;2023-02-04T00:22:33;103239.97;;;11.34;100.00
42591;BME280;28218;53.342;-6.216;2023-02-04T00:25:01;103241.56;;;11.36;100.00
42591;BME280;28218;53.342;-6.216;2023-02-04T00:27:29;103237.44;;;11.32;100.00
42591;BME280;28218;53.342;-6.216;2023-02-04T00:29:58;103234.47;;;11.37;100.00
42591;BME280;28218;53.342;-6.216;2023-02-04T00:32:26;103237.88;;;11.39;100.00
42591;BME280;28218;53.342;-6.216;2023-02-04T00:34:54;103242.06;;;11.41;100.00
42591;BME280;28218;53.342;-6.216;2023-02-04T00:37:22;103240.38;;;11.40;100.00
42591;BME280;28218;53.342;-6.216;2023-02-04T00:39:50;103241.84;;;11.44;100.00
42591;BME280;28218;53.342;-6.216;2023-02-04T00:42:18;103245.44;;;11.43;100.00
42591;BME280;28218;53.342;-6.216;2023-02-04T00:44:46;103240.88;;;11.45;100.00
42591;BME280;28218;53.342;-6.216;2023-02-04T00:47:16;103242.81;;;11.43;100.00
42591;BME280;28218;53.342;-6.216;2023-02-04T00:49:44;103245.44;;;11.43;100.00
42591;BME280;28218;53.342;-6.216;2023-02-04T00:52:11;103246.38;;;11.42;100.00
42591;BME280;28218;53.342;-6.216;2023-02-04T00:54:40;103241.22;;;11.41;100.00
42591;BME280;28218;53.342;-6.216;2023-02-04T00:57:07;103242.91;;;11.42;100.00
42591;BME280;28218;53.342;-6.216;2023-02-04T00:59:35;103250.81;;;11.42;100.00
42591;BME280;28218;53.342;-6.216;2023-02-04T01:02:03;103238.47;;;11.42;100.00
42591;BME280;28218;53.342;-6.216;2023-02-04T01:04:33;103243.75;;;11.42;100.00
42591;BME280;28218;53.342;-6.216;2023-02-04T01:07:01;103245.44;;;11.43;100.00
42591;BME280;28218;53.342;-6.216;2023-02-04T01:09:28;103247.34;;;11.41;100.00
42591;BME280;28218;53.342;-6.216;2023-02-04T01:11:56;103243.75;;;11.42;100.00
42591;BME280;28218;53.342;-6.216;2023-02-04T01:14:24;103245.88;;;11.37;100.00
42591;BME280;28218;53.342;-6.216;2023-02-04T01:16:52;103241.56;;;11.36;100.00
42591;BME280;28218;53.342;-6.216;2023-02-04T01:19:20;103245.88;;;11.37;100.00
42591;BME280;28218;53.342;-6.216;2023-02-04T01:21:49;103243.22;;;11.37;100.00
42591;BME280;28218;53.342;-6.216;2023-02-04T01:24:17;103257.50;;;11.35;100.00
42591;BME280;28218;53.342;-6.216;2023-02-04T01:26:45;103252.09;;;11.36;100.00
42591;BME280;28218;53.342;-6.216;2023-02-04T01:29:13;103262.88;;;11.33;100.00
42591;BME280;28218;53.342;-6.216;2023-02-04T01:31:41;103265.53;;;11.33;100.00
42591;BME280;28218;53.342;-6.216;2023-02-04T01:34:09;103270.81;;;11.33;100.00
42591;BME280;28218;53.342;-6.216;2023-02-04T01:36:37;103274.19;;;11.35;100.00
42591;BME280;28218;53.342;-6.216;2023-02-04T01:39:06;103274.41;;;11.32;100.00
42591;BME280;28218;53.342;-6.216;2023-02-04T01:41:34;103282.31;;;11.32;100.00
42591;BME280;28218;53.342;-6.216;2023-02-04T01:44:02;103288.22;;;11.36;100.00
42591;BME280;28218;53.342;-6.216;2023-02-04T01:46:30;103280.53;;;11.33;100.00
42591;BME280;28218;53.342;-6.216;2023-02-04T01:48:59;103285.41;;;11.26;100.00
42591;BME280;28218;53.342;-6.216;2023-02-04T01:51:28;103287.81;;;11.29;100.00
42591;BME280;28218;53.342;-6.216;2023-02-04T01:53:57;103284.13;;;11.32;100.00
42591;BME280;28218;53.342;-6.216;2023-02-04T01:56:28;103288.34;;;11.34;100.00
42591;BME280;28218;53.342;-6.216;2023-02-04T01:58:57;103284.75;;;11.35;100.00
42591;BME280;28218;53.342;-6.216;2023-02-04T02:01:32;103291.06;;;11.33;100.00
42591;BME280;28218;53.342;-6.216;2023-02-04T02:04:00;103290.13;;;11.34;100.00
42591;BME280;28218;53.342;-6.216;2023-02-04T02:06:28;103287.38;;;11.35;100.00
42591;BME280;28218;53.342;-6.216;2023-02-04T02:08:56;103298.91;;;11.34;100.00
42591;BME280;28218;53.342;-6.216;2023-02-04T02:11:25;103298.03;;;11.34;100.00
42591;BME280;28218;53.342;-6.216;2023-02-04T02:13:55;103297.44;;;11.30;100.00
42591;BME280;28218;53.342;-6.216;2023-02-04T02:16:23;103296.69;;;11.28;100.00
42591;BME280;28218;53.342;-6.216;2023-02-04T02:18:51;103294.88;;;11.29;100.00
42591;BME280;28218;53.342;-6.216;2023-02-04T02:21:21;103293.84;;;11.31;100.00
42591;BME280;28218;53.342;-6.216;2023-02-04T02:23:54;103298.16;;;11.32;100.00
42591;BME280;28218;53.342;-6.216;2023-02-04T02:26:23;103306.28;;;11.29;100.00
42591;BME280;28218;53.342;-6.216;2023-02-04T02:28:51;103304.84;;;11.25;100.00
42591;BME280;28218;53.342;-6.216;2023-02-04T02:31:20;103313.47;;;11.27;100.00
42591;BME280;28218;53.342;-6.216;2023-02-04T02:33:49;103304.94;;;11.23;100.00
42591;BME280;28218;53.342;-6.216;2023-02-04T02:36:17;103308.66;;;11.21;100.00
42591;BME280;28218;53.342;-6.216;2023-02-04T02:38:45;103312.66;;;11.26;100.00
42591;BME280;28218;53.342;-6.216;2023-02-04T02:41:14;103322.25;;;11.27;100.00
42591;BME280;28218;53.342;-6.216;2023-02-04T02:43:42;103314.31;;;11.27;100.00
42591;BME280;28218;53.342;-6.216;2023-02-04T02:46:10;103316.84;;;11.29;100.00
42591;BME280;28218;53.342;-6.216;2023-02-04T02:48:38;103319.84;;;11.24;100.00
42591;BME280;28218;53.342;-6.216;2023-02-04T02:51:06;103318.97;;;11.24;100.00
42591;BME280;28218;53.342;-6.216;2023-02-04T02:53:34;103315.59;;;11.22;100.00
42591;BME280;28218;53.342;-6.216;2023-02-04T02:56:02;103322.88;;;11.18;100.00
42591;BME280;28218;53.342;-6.216;2023-02-04T02:58:35;103321.41;;;11.27;100.00
42591;BME280;28218;53.342;-6.216;2023-02-04T03:01:03;103317.72;;;11.30;100.00
42591;BME280;28218;53.342;-6.216;2023-02-04T03:03:32;103317.81;;;11.28;100.00
42591;BME280;28218;53.342;-6.216;2023-02-04T03:06:02;103316.25;;;11.25;100.00
42591;BME280;28218;53.342;-6.216;2023-02-04T03:08:32;103316.25;;;11.25;100.00
42591;BME280;28218;53.342;-6.216;2023-02-04T03:11:00;103309.16;;;11.26;100.00
42591;BME280;28218;53.342;-6.216;2023-02-04T03:13:28;103306.53;;;11.26;100.00
42591;BME280;28218;53.342;-6.216;2023-02-04T03:15:58;103305.06;;;11.22;100.00
42591;BME280;28218;53.342;-6.216;2023-02-04T03:18:26;103313.94;;;11.21;100.00
42591;BME280;28218;53.342;-6.216;2023-02-04T03:20:54;103299.06;;;11.20;100.00
42591;BME280;28218;53.342;-6.216;2023-02-04T03:23:22;103302.53;;;11.20;100.00
42591;BME280;28218;53.342;-6.216;2023-02-04T03:25:50;103304.84;;;11.25;100.00
42591;BME280;28218;53.342;-6.216;2023-02-04T03:28:18;103294.03;;;11.28;100.00
42591;BME280;28218;53.342;-6.216;2023-02-04T03:30:46;103305.56;;;11.27;100.00
42591;BME280;28218;53.342;-6.216;2023-02-04T03:33:23;103296.94;;;11.25;100.00
42591;BME280;28218;53.342;-6.216;2023-02-04T03:35:53;103305.06;;;11.22;100.00
42591;BME280;28218;53.342;-6.216;2023-02-04T03:38:23;103304.66;;;11.15;100.00
42591;BME280;28218;53.342;-6.216;2023-02-04T03:40:51;103308.00;;;11.17;100.00
42591;BME280;28218;53.342;-6.216;2023-02-04T03:43:19;103314.97;;;11.18;100.00
42591;BME280;28218;53.342;-6.216;2023-02-04T03:45:47;103302.75;;;11.17;100.00
42591;BME280;28218;53.342;-6.216;2023-02-04T03:48:15;103304.41;;;11.18;100.00
42591;BME280;28218;53.342;-6.216;2023-02-04T03:50:44;103299.97;;;11.19;100.00
42591;BME280;28218;53.342;-6.216;2023-02-04T03:53:12;103305.69;;;11.13;100.00
42591;BME280;28218;53.342;-6.216;2023-02-04T03:55:40;103324.91;;;11.15;100.00
42591;BME280;28218;53.342;-6.216;2023-02-04T03:58:08;103317.31;;;11.10;100.00
42591;BME280;28218;53.342;-6.216;2023-02-04T04:00:36;103312.66;;;11.14;100.00
42591;BME280;28218;53.342;-6.216;2023-02-04T04:03:04;103327.03;;;11.10;100.00
42591;BME280;28218;53.342;-6.216;2023-02-04T04:05:32;103314.56;;;11.12;100.00
42591;BME280;28218;53.342;-6.216;2023-02-04T04:08:01;103323.44;;;11.11;100.00
42591;BME280;28218;53.342;-6.216;2023-02-04T04:10:29;103317.22;;;11.12;100.00
42591;BME280;28218;53.342;-6.216;2023-02-04T04:12:57;103310.78;;;11.16;100.00
42591;BME280;28218;53.342;-6.216;2023-02-04T04:15:25;103305.69;;;11.13;100.00
42591;BME280;28218;53.342;-6.216;2023-02-04T04:17:53;103305.59;;;11.14;100.00
42591;BME280;28218;53.342;-6.216;2023-02-04T04:20:21;103296.94;;;11.12;100.00
42591;BME280;28218;53.342;-6.216;2023-02-04T04:22:51;103307.72;;;11.09;100.00
42591;BME280;28218;53.342;-6.216;2023-02-04T04:25:20;103292.72;;;11.10;100.00
42591;BME280;28218;53.342;-6.216;2023-02-04T04:27:48;103305.69;;;11.13;100.00
42591;BME280;28218;53.342;-6.216;2023-02-04T04:30:16;103297.78;;;11.13;100.00
42591;BME280;28218;53.342;-6.216;2023-02-04T04:32:44;103302.09;;;11.14;100.00
42591;BME280;28218;53.342;-6.216;2023-02-04T04:35:12;103295.16;;;11.13;100.00
42591;BME280;28218;53.342;-6.216;2023-02-04T04:37:40;103292.50;;;11.13;100.00
42591;BME280;28218;53.342;-6.216;2023-02-04T04:40:09;103291.56;;;11.14;100.00
42591;BME280;28218;53.342;-6.216;2023-02-04T04:42:39;103298.84;;;11.10;100.00
42591;BME280;28218;53.342;-6.216;2023-02-04T04:45:07;103307.50;;;11.12;100.00
42591;BME280;28218;53.342;-6.216;2023-02-04T04:47:35;103311.94;;;11.12;100.00
42591;BME280;28218;53.342;-6.216;2023-02-04T04:50:03;103312.03;;;11.10;100.00
42591;BME280;28218;53.342;-6.216;2023-02-04T04:52:31;103303.28;;;11.10;100.00
42591;BME280;28218;53.342;-6.216;2023-02-04T04:54:59;103316.47;;;11.10;100.00
42591;BME280;28218;53.342;-6.216;2023-02-04T04:57:27;103314.78;;;11.09;100.00
42591;BME280;28218;53.342;-6.216;2023-02-04T04:59:56;103307.81;;;11.08;100.00
42591;BME280;28218;53.342;-6.216;2023-02-04T05:02:24;103307.81;;;11.08;100.00
42591;BME280;28218;53.342;-6.216;2023-02-04T05:04:53;103309.63;;;11.07;100.00
42591;BME280;28218;53.342;-6.216;2023-02-04T05:07:23;103317.41;;;11.09;100.00
42591;BME280;28218;53.342;-6.216;2023-02-04T05:09:51;103314.91;;;11.07;100.00
42591;BME280;28218;53.342;-6.216;2023-02-04T05:12:19;103320.28;;;11.06;100.00
42591;BME280;28218;53.342;-6.216;2023-02-04T05:14:47;103309.75;;;11.06;100.00
42591;BME280;28218;53.342;-6.216;2023-02-04T05:17:17;103326.50;;;11.05;100.00
42591;BME280;28218;53.342;-6.216;2023-02-04T05:19:45;103315.94;;;11.05;100.00
42591;BME280;28218;53.342;-6.216;2023-02-04T05:22:13;103327.47;;;11.04;100.00
42591;BME280;28218;53.342;-6.216;2023-02-04T05:24:40;103320.72;;;10.99;100.00
42591;BME280;28218;53.342;-6.216;2023-02-04T05:27:08;103326.75;;;11.02;100.00
42591;BME280;28218;53.342;-6.216;2023-02-04T05:29:36;103331.06;;;11.03;100.00
42591;BME280;28218;53.342;-6.216;2023-02-04T05:32:04;103331.91;;;11.03;100.00
42591;BME280;28218;53.342;-6.216;2023-02-04T05:34:33;103330.22;;;11.02;100.00
42591;BME280;28218;53.342;-6.216;2023-02-04T05:37:01;103331.78;;;11.05;100.00
42591;BME280;28218;53.342;-6.216;2023-02-04T05:39:29;103330.84;;;11.06;100.00
42591;BME280;28218;53.342;-6.216;2023-02-04T05:41:57;103327.47;;;11.04;100.00
42591;BME280;28218;53.342;-6.216;2023-02-04T05:44:25;103320.28;;;11.06;100.00
42591;BME280;28218;53.342;-6.216;2023-02-04T05:46:53;103322.28;;;11.02;100.00
42591;BME280;28218;53.342;-6.216;2023-02-04T05:49:21;103319.34;;;11.07;100.00
42591;BME280;28218;53.342;-6.216;2023-02-04T05:51:51;103316.47;;;11.10;100.00
42591;BME280;28218;53.342;-6.216;2023-02-04T05:54:19;103315.53;;;11.11;100.00
42591;BME280;28218;53.342;-6.216;2023-02-04T05:56:47;103306.34;;;11.04;100.00
42591;BME280;28218;53.342;-6.216;2023-02-04T05:59:17;103304.66;;;11.03;100.00
42591;BME280;28218;53.342;-6.216;2023-02-04T06:01:45;103312.59;;;11.03;100.00
42591;BME280;28218;53.342;-6.216;2023-02-04T06:04:13;103310.78;;;11.03;100.00
42591;BME280;28218;53.342;-6.216;2023-02-04T06:06:42;103307.81;;;11.08;100.00
42591;BME280;28218;53.342;-6.216;2023-02-04T06:09:11;103302.66;;;11.06;100.00
42591;BME280;28218;53.342;-6.216;2023-02-04T06:11:39;103295.59;;;11.07;100.00
42591;BME280;28218;53.342;-6.216;2023-02-04T06:14:07;103298.13;;;11.08;100.00
42591;BME280;28218;53.342;-6.216;2023-02-04T06:16:36;103308.78;;;11.07;100.00
42591;BME280;28218;53.342;-6.216;2023-02-04T06:19:04;103300.13;;;11.05;100.00
42591;BME280;28218;53.342;-6.216;2023-02-04T06:21:32;103299.41;;;11.03;100.00
42591;BME280;28218;53.342;-6.216;2023-02-04T06:23:59;103307.09;;;11.06;100.00
42591;BME280;28218;53.342;-6.216;2023-02-04T06:26:30;103309.75;;;11.06;100.00
42591;BME280;28218;53.342;-6.216;2023-02-04T06:28:58;103306.34;;;11.04;100.00
42591;BME280;28218;53.342;-6.216;2023-02-04T06:31:27;103314.78;;;11.09;100.00
42591;BME280;28218;53.342;-6.216;2023-02-04T06:33:56;103308.66;;;11.08;100.00
42591;BME280;28218;53.342;-6.216;2023-02-04T06:36:24;103308.03;;;11.05;100.00
42591;BME280;28218;53.342;-6.216;2023-02-04T06:38:52;103303.00;;;11.02;100.00
42591;BME280;28218;53.342;-6.216;2023-02-04T06:41:20;103306.22;;;11.05;100.00
42591;BME280;28218;53.342;-6.216;2023-02-04T06:43:49;103305.31;;;11.06;100.00
42591;BME280;28218;53.342;-6.216;2023-02-04T06:46:17;103297.28;;;11.08;100.00
42591;BME280;28218;53.342;-6.216;2023-02-04T06:48:45;103301.91;;;11.04;100.00
42591;BME280;28218;53.342;-6.216;2023-02-04T06:51:13;103313.09;;;11.08;100.00
42591;BME280;28218;53.342;-6.216;2023-02-04T06:53:41;103307.81;;;11.08;100.00
42591;BME280;28218;53.342;-6.216;2023-02-04T06:56:11;103314.47;;;11.13;100.00
42591;BME280;28218;53.342;-6.216;2023-02-04T06:58:39;103308.53;;;11.10;100.00
42591;BME280;28218;53.342;-6.216;2023-02-04T07:01:08;103306.16;;;11.07;100.00
42591;BME280;28218;53.342;-6.216;2023-02-04T07:03:36;103303.38;;;11.08;100.00
42591;BME280;28218;53.342;-6.216;2023-02-04T07:06:04;103305.91;;;11.10;100.00
42591;BME280;28218;53.342;-6.216;2023-02-04T07:08:32;103299.72;;;11.11;100.00
42591;BME280;28218;53.342;-6.216;2023-02-04T07:11:00;103302.22;;;11.12;100.00
42591;BME280;28218;53.342;-6.216;2023-02-04T07:13:28;103308.66;;;11.08;100.00
42591;BME280;28218;53.342;-6.216;2023-02-04T07:15:56;103301.47;;;11.10;100.00
42591;BME280;28218;53.342;-6.216;2023-02-04T07:18:25;103299.72;;;11.11;100.00
42591;BME280;28218;53.342;-6.216;2023-02-04T07:20:53;103293.22;;;11.15;100.00
42591;BME280;28218;53.342;-6.216;2023-02-04T07:23:21;103300.22;;;11.16;100.00
42591;BME280;28218;53.342;-6.216;2023-02-04T07:25:51;103287.13;;;11.14;100.00
42591;BME280;28218;53.342;-6.216;2023-02-04T07:28:19;103297.06;;;11.11;100.00
42591;BME280;28218;53.342;-6.216;2023-02-04T07:30:47;103284.59;;;11.13;100.00
42591;BME280;28218;53.342;-6.216;2023-02-04T07:33:15;103295.78;;;11.16;100.00
42591;BME280;28218;53.342;-6.216;2023-02-04T07:35:45;103287.94;;;11.15;100.00
42591;BME280;28218;53.342;-6.216;2023-02-04T07:38:13;103288.28;;;11.10;100.00
42591;BME280;28218;53.342;-6.216;2023-02-04T07:40:41;103291.56;;;11.14;100.00
42591;BME280;28218;53.342;-6.216;2023-02-04T07:43:09;103285.22;;;11.16;100.00
42591;BME280;28218;53.342;-6.216;2023-02-04T07:45:37;103287.03;;;11.16;100.00
42591;BME280;28218;53.342;-6.216;2023-02-04T07:48:05;103288.81;;;11.15;100.00
42591;BME280;28218;53.342;-6.216;2023-02-04T07:50:33;103284.38;;;11.16;100.00
42591;BME280;28218;53.342;-6.216;2023-02-04T07:53:02;103288.91;;;11.14;100.00
42591;BME280;28218;53.342;-6.216;2023-02-04T07:55:30;103290.59;;;11.15;100.00
42591;BME280;28218;53.342;-6.216;2023-02-04T07:57:58;103300.44;;;11.13;100.00
42591;BME280;28218;53.342;-6.216;2023-02-04T08:00:26;103300.22;;;11.16;100.00
42591;BME280;28218;53.342;-6.216;2023-02-04T08:02:54;103298.41;;;11.16;100.00
42591;BME280;28218;53.342;-6.216;2023-02-04T08:05:22;103314.47;;;11.13;100.00
42591;BME280;28218;53.342;-6.216;2023-02-04T08:07:50;103304.66;;;11.15;100.00
42591;BME280;28218;53.342;-6.216;2023-02-04T08:10:19;103312.91;;;11.11;100.00
42591;BME280;28218;53.342;-6.216;2023-02-04T08:12:47;103306.34;;;11.16;100.00
42591;BME280;28218;53.342;-6.216;2023-02-04T08:15:15;103315.31;;;11.14;100.00
42591;BME280;28218;53.342;-6.216;2023-02-04T08:17:43;103324.91;;;11.15;100.00
42591;BME280;28218;53.342;-6.216;2023-02-04T08:20:11;103322.59;;;11.10;100.00
42591;BME280;28218;53.342;-6.216;2023-02-04T08:22:39;103316.25;;;11.13;100.00
42591;BME280;28218;53.342;-6.216;2023-02-04T08:25:08;103319.84;;;11.12;100.00
42591;BME280;28218;53.342;-6.216;2023-02-04T08:27:38;103317.94;;;11.14;100.00
42591;BME280;28218;53.342;-6.216;2023-02-04T08:30:06;103324.16;;;11.13;100.00
42591;BME280;28218;53.342;-6.216;2023-02-04T08:32:35;103312.91;;;11.11;100.00
42591;BME280;28218;53.342;-6.216;2023-02-04T08:35:03;103318.19;;;11.11;100.00
42591;BME280;28218;53.342;-6.216;2023-02-04T08:37:32;103325.13;;;11.12;100.00
42591;BME280;28218;53.342;-6.216;2023-02-04T08:39:59;103315.03;;;11.06;100.00
42591;BME280;28218;53.342;-6.216;2023-02-04T08:42:27;103323.03;;;11.04;100.00
42591;BME280;28218;53.342;-6.216;2023-02-04T08:44:57;103325.13;;;11.12;100.00
42591;BME280;28218;53.342;-6.216;2023-02-04T08:47:25;103327.66;;;11.13;100.00
42591;BME280;28218;53.342;-6.216;2023-02-04T08:49:53;103326.69;;;11.14;100.00
42591;BME280;28218;53.342;-6.216;2023-02-04T08:52:20;103325.66;;;11.17;100.00
42591;BME280;28218;53.342;-6.216;2023-02-04T08:54:48;103320.50;;;11.15;100.00
42591;BME280;28218;53.342;-6.216;2023-02-04T08:57:16;103329.13;;;11.17;100.00
42591;BME280;28218;53.342;-6.216;2023-02-04T08:59:44;103331.13;;;11.14;100.00
42591;BME280;28218;53.342;-6.216;2023-02-04T09:02:14;103337.38;;;11.13;100.00
42591;BME280;28218;53.342;-6.216;2023-02-04T09:04:42;103341.47;;;11.17;100.00
42591;BME280;28218;53.342;-6.216;2023-02-04T09:07:09;103337.75;;;11.19;100.00
42591;BME280;28218;53.342;-6.216;2023-02-04T09:09:37;103349.59;;;11.14;100.00
42591;BME280;28218;53.342;-6.216;2023-02-04T09:12:05;103351.28;;;11.15;100.00
42591;BME280;28218;53.342;-6.216;2023-02-04T09:14:33;103356.34;;;11.18;100.00
42591;BME280;28218;53.342;-6.216;2023-02-04T09:17:01;103357.94;;;11.20;100.00
42591;BME280;28218;53.342;-6.216;2023-02-04T09:19:32;103360.59;;;11.20;100.00
42591;BME280;28218;53.342;-6.216;2023-02-04T09:22:00;103366.38;;;11.25;100.00
42591;BME280;28218;53.342;-6.216;2023-02-04T09:24:28;103359.31;;;11.26;100.00
42591;BME280;28218;53.342;-6.216;2023-02-04T09:26:56;103364.47;;;11.27;100.00
42591;BME280;28218;53.342;-6.216;2023-02-04T09:29:24;103363.94;;;11.35;100.00
42591;BME280;28218;53.342;-6.216;2023-02-04T09:31:51;103369.94;;;11.37;100.00
42591;BME280;28218;53.342;-6.216;2023-02-04T09:34:20;103360.22;;;11.38;100.00
42591;BME280;28218;53.342;-6.216;2023-02-04T09:36:49;103360.22;;;11.38;100.00
42591;BME280;28218;53.342;-6.216;2023-02-04T09:39:17;103358.66;;;11.35;100.00
42591;BME280;28218;53.342;-6.216;2023-02-04T09:41:45;103354.84;;;11.39;100.00
42591;BME280;28218;53.342;-6.216;2023-02-04T09:44:13;103358.75;;;11.34;100.00
42591;BME280;28218;53.342;-6.216;2023-02-04T09:46:43;103358.97;;;11.43;100.00
42591;BME280;28218;53.342;-6.216;2023-02-04T09:49:14;103365.19;;;11.42;100.00
42591;BME280;28218;53.342;-6.216;2023-02-04T09:51:41;103362.44;;;11.44;100.00
42591;BME280;28218;53.342;-6.216;2023-02-04T09:54:12;103362.53;;;11.42;100.00
42591;BME280;28218;53.342;-6.216;2023-02-04T09:56:41;103353.25;;;11.49;100.00
42591;BME280;28218;53.342;-6.216;2023-02-04T09:59:09;103356.38;;;11.55;100.00
42591;BME280;28218;53.342;-6.216;2023-02-04T10:01:38;103356.91;;;11.60;100.00
42591;BME280;28218;53.342;-6.216;2023-02-04T10:04:07;103358.38;;;11.64;100.00
42591;BME280;28218;53.342;-6.216;2023-02-04T10:06:37;103355.59;;;11.65;100.00
42591;BME280;28218;53.342;-6.216;2023-02-04T10:09:05;103371.25;;;11.68;100.00
42591;BME280;28218;53.342;-6.216;2023-02-04T10:11:35;103365.53;;;11.62;100.00
42591;BME280;28218;53.342;-6.216;2023-02-04T10:14:04;103358.59;;;11.61;100.00
42591;BME280;28218;53.342;-6.216;2023-02-04T10:16:32;103362.41;;;11.57;100.00
42591;BME280;28218;53.342;-6.216;2023-02-04T10:19:02;103363.88;;;11.61;100.00
42591;BME280;28218;53.342;-6.216;2023-02-04T10:21:31;103368.72;;;11.67;100.00
42591;BME280;28218;53.342;-6.216;2023-02-04T10:24:00;103366.63;;;11.59;100.00
42591;BME280;28218;53.342;-6.216;2023-02-04T10:26:29;103373.78;;;11.70;100.00
42591;BME280;28218;53.342;-6.216;2023-02-04T10:29:00;103375.13;;;11.75;100.00
42591;BME280;28218;53.342;-6.216;2023-02-04T10:31:33;103366.59;;;11.72;100.00
42591;BME280;28218;53.342;-6.216;2023-02-04T10:34:09;103374.84;;;11.67;100.00
42591;BME280;28218;53.342;-6.216;2023-02-04T10:36:38;103381.25;;;11.76;100.00
42591;BME280;28218;53.342;-6.216;2023-02-04T10:39:09;103375.78;;;11.66;100.00
42591;BME280;28218;53.342;-6.216;2023-02-04T10:41:38;103380.78;;;11.58;100.00
42591;BME280;28218;53.342;-6.216;2023-02-04T10:44:13;103372.75;;;11.60;100.00
42591;BME280;28218;53.342;-6.216;2023-02-04T10:46:41;103373.72;;;11.59;100.00
42591;BME280;28218;53.342;-6.216;2023-02-04T10:49:16;103375.25;;;11.61;100.00
42591;BME280;28218;53.342;-6.216;2023-02-04T10:51:44;103381.69;;;11.70;100.00
42591;BME280;28218;53.342;-6.216;2023-02-04T10:54:13;103383.03;;;11.75;100.00
42591;BME280;28218;53.342;-6.216;2023-02-04T10:57:01;103386.75;;;11.73;100.00
42591;BME280;28218;53.342;-6.216;2023-02-04T10:59:32;103377.25;;;11.70;100.00
42591;BME280;28218;53.342;-6.216;2023-02-04T11:02:01;103380.53;;;11.74;100.00
42591;BME280;28218;53.342;-6.216;2023-02-04T11:04:41;103379.34;;;11.78;100.00
42591;BME280;28218;53.342;-6.216;2023-02-04T11:07:12;103373.56;;;11.86;100.00
42591;BME280;28218;53.342;-6.216;2023-02-04T11:09:40;103373.09;;;11.92;100.00
42591;BME280;28218;53.342;-6.216;2023-02-04T11:12:17;103377.09;;;11.97;100.00
42591;BME280;28218;53.342;-6.216;2023-02-04T11:14:54;103376.44;;;11.94;100.00
42591;BME280;28218;53.342;-6.216;2023-02-04T11:17:27;103376.88;;;12.00;100.00
42591;BME280;28218;53.342;-6.216;2023-02-04T11:19:57;103377.72;;;12.01;100.00
42591;BME280;28218;53.342;-6.216;2023-02-04T11:22:35;103379.16;;;12.05;100.00
42591;BME280;28218;53.342;-6.216;2023-02-04T11:27:50;103383.16;;;12.11;100.00
42591;BME280;28218;53.342;-6.216;2023-02-04T11:30:20;103390.25;;;12.10;100.00
42591;BME280;28218;53.342;-6.216;2023-02-04T11:32:55;103373.22;;;12.14;100.00
42591;BME280;28218;53.342;-6.216;2023-02-04T11:35:27;103387.34;;;12.13;100.00
42591;BME280;28218;53.342;-6.216;2023-02-04T11:37:56;103383.88;;;12.13;100.00
42591;BME280;28218;53.342;-6.216;2023-02-04T11:40:26;103381.34;;;12.11;100.00
42591;BME280;28218;53.342;-6.216;2023-02-04T11:42:55;103377.75;;;12.12;100.00
42591;BME280;28218;53.342;-6.216;2023-02-04T11:45:25;103372.97;;;12.17;100.00
42591;BME280;28218;53.342;-6.216;2023-02-04T11:47:55;103370.22;;;12.19;100.00
42591;BME280;28218;53.342;-6.216;2023-02-04T11:50:25;103370.94;;;12.21;100.00
42591;BME280;28218;53.342;-6.216;2023-02-04T11:52:54;103381.72;;;12.18;100.00
42591;BME280;28218;53.342;-6.216;2023-02-04T11:55:23;103382.34;;;12.21;100.00
42591;BME280;28218;53.342;-6.216;2023-02-04T11:57:52;103379.25;;;12.27;100.00
42591;BME280;28218;53.342;-6.216;2023-02-04T12:00:21;103379.59;;;12.23;100.00
42591;BME280;28218;53.342;-6.216;2023-02-04T12:02:53;103369.28;;;12.31;100.00
42591;BME280;28218;53.342;-6.216;2023-02-04T12:05:28;103365.19;;;12.27;100.00
42591;BME280;28218;53.342;-6.216;2023-02-04T12:08:08;103361.41;;;12.42;100.00
42591;BME280;28218;53.342;-6.216;2023-02-04T12:10:37;103358.44;;;12.47;100.00
42591;BME280;28218;53.342;-6.216;2023-02-04T12:13:11;103360.94;;;12.48;100.00
42591;BME280;28218;53.342;-6.216;2023-02-04T12:15:39;103358.16;;;12.50;100.00
42591;BME280;28218;53.342;-6.216;2023-02-04T12:18:09;103358.78;;;12.53;100.00
42591;BME280;28218;53.342;-6.216;2023-02-04T12:20:38;103357.47;;;12.59;100.00
42591;BME280;28218;53.342;-6.216;2023-02-04T12:23:06;103353.75;;;12.62;100.00
42591;BME280;28218;53.342;-6.216;2023-02-04T12:25:34;103356.91;;;12.67;100.00
42591;BME280;28218;53.342;-6.216;2023-02-04T12:28:02;103356.41;;;12.62;100.00
42591;BME280;28218;53.342;-6.216;2023-02-04T12:30:30;103353.06;;;12.71;100.00
42591;BME280;28218;53.342;-6.216;2023-02-04T12:32:58;103352.09;;;12.72;100.00
42591;BME280;28218;53.342;-6.216;2023-02-04T12:35:28;103351.84;;;12.75;100.00
42591;BME280;28218;53.342;-6.216;2023-02-04T12:37:56;103352.56;;;12.77;100.00
42591;BME280;28218;53.342;-6.216;2023-02-04T12:40:24;103355.44;;;12.74;100.00